Time;durP1;ratioP1;P1;durP2;ratioP2;P2;SDS_P1;SDS_P2;PMS_P1;PMS_P2;Temp;Humidity;BMP_temperature;BMP_pressure;BME280_temperature;BME280_humidity;BME280_pressure;Samples;Min_cycle;Max_cycle;Signal;HPM_P1;HPM_P2
2022/01/15 00:00:34;;;;;;;13.48;6.53;;;3.80;1.00;;;;;;5075283;28;20289;-82
2022/01/15 00:03:03;;;;;;;16.92;5.47;;;3.80;1.00;;;;;;5073937;28;20330;-81
2022/01/15 00:05:31;;;;;;;16.73;6.22;;;3.80;1.00;;;;;;5075276;28;20217;-81
2022/01/15 00:07:57;;;;;;;22.73;6.70;;;3.80;1.00;;;;;;5066695;28;20274;-82
2022/01/15 00:10:27;;;;;;;18.92;6.10;;;3.70;1.00;;;;;;5075114;28;20217;-83
2022/01/15 00:12:54;;;;;;;18.35;6.43;;;3.70;1.00;;;;;;5075133;28;20206;-80
2022/01/15 00:15:25;;;;;;;16.23;6.53;;;3.70;1.00;;;;;;5055193;28;20222;-81
2022/01/15 00:17:58;;;;;;;21.40;6.43;;;3.70;1.00;;;;;;5054447;28;20253;-81
2022/01/15 00:20:27;;;;;;;19.67;5.80;;;3.70;1.00;;;;;;5076626;28;20221;-81
2022/01/15 00:22:55;;;;;;;20.85;6.00;;;3.70;1.00;;;;;;5074815;28;20509;-80
2022/01/15 00:25:24;;;;;;;13.13;6.28;;;3.60;1.00;;;;;;5071956;28;20220;-84
2022/01/15 00:27:52;;;;;;;13.95;6.60;;;3.70;1.00;;;;;;5074148;28;20220;-80
2022/01/15 00:30:19;;;;;;;9.82;5.47;;;3.60;1.00;;;;;;5068425;28;20229;-81
2022/01/15 00:32:47;;;;;;;18.83;7.53;;;3.60;1.00;;;;;;5072255;28;20209;-82
2022/01/15 00:35:15;;;;;;;12.70;6.57;;;3.60;1.00;;;;;;5070591;28;20238;-82
2022/01/15 00:37:44;;;;;;;20.08;7.25;;;3.60;1.00;;;;;;5072781;28;20264;-81
2022/01/15 00:40:13;;;;;;;20.83;6.10;;;3.70;1.00;;;;;;5070796;28;20219;-81
2022/01/15 00:42:41;;;;;;;23.67;7.32;;;3.60;1.00;;;;;;5071553;28;20221;-81
2022/01/15 00:45:14;;;;;;;16.98;6.30;;;3.60;1.00;;;;;;5071979;28;20213;-80
2022/01/15 00:47:41;;;;;;;15.68;6.13;;;3.60;1.00;;;;;;5069610;28;20212;-83
2022/01/15 00:50:09;;;;;;;15.40;6.22;;;3.60;1.00;;;;;;5071065;28;20268;-81
2022/01/15 00:52:36;;;;;;;21.88;6.60;;;3.60;1.00;;;;;;5073631;28;20286;-83
2022/01/15 00:55:07;;;;;;;21.55;7.18;;;3.60;1.00;;;;;;5066264;28;20273;-81
2022/01/15 00:57:34;;;;;;;23.70;7.60;;;3.50;1.00;;;;;;5051855;28;20230;-81
2022/01/15 01:00:00;;;;;;;16.95;5.70;;;3.50;1.00;;;;;;5067882;28;20214;-80
2022/01/15 01:02:27;;;;;;;29.85;6.43;;;3.50;1.00;;;;;;5077054;28;20217;-86
2022/01/15 01:04:56;;;;;;;22.35;7.40;;;3.50;1.00;;;;;;5077474;28;20221;-85
2022/01/15 01:07:27;;;;;;;19.23;5.40;;;3.50;1.00;;;;;;5161716;22;20372;-85
2022/01/15 01:10:09;;;;;;;14.65;6.13;;;3.50;1.00;;;;;;5081219;28;20209;-86
2022/01/15 01:13:07;;;;;;;14.25;5.55;;;3.50;1.00;;;;;;5094792;28;20292;-87
2022/01/15 01:21:30;;;;;;;22.83;6.85;;;3.40;1.00;;;;;;5077328;28;20221;-86
2022/01/15 01:23:55;;;;;;;17.30;7.30;;;3.40;1.00;;;;;;5088794;28;20239;-84
2022/01/15 01:26:29;;;;;;;12.63;4.87;;;3.40;1.00;;;;;;5093853;28;20220;-86
2022/01/15 01:29:05;;;;;;;15.18;4.90;;;3.40;1.00;;;;;;5094423;28;20197;-87
2022/01/15 01:31:37;;;;;;;27.60;6.35;;;3.40;1.00;;;;;;5094300;28;20216;-81
2022/01/15 01:34:08;;;;;;;12.43;5.18;;;3.40;1.00;;;;;;5068614;28;20228;-79
2022/01/15 01:36:44;;;;;;;14.15;5.25;;;3.40;1.00;;;;;;5069198;28;20213;-80
2022/01/15 01:39:15;;;;;;;13.20;6.30;;;3.40;1.00;;;;;;5072927;28;20235;-80
2022/01/15 01:41:48;;;;;;;22.92;5.60;;;3.40;1.00;;;;;;5091095;28;20236;-81
2022/01/15 01:44:18;;;;;;;17.08;5.60;;;3.40;1.00;;;;;;5093920;28;20279;-80
2022/01/15 01:46:50;;;;;;;14.05;5.20;;;3.30;1.00;;;;;;5087126;28;20214;-82
2022/01/15 01:49:19;;;;;;;18.48;5.78;;;3.30;1.00;;;;;;5087319;28;20225;-80
2022/01/15 01:51:46;;;;;;;18.10;5.43;;;3.30;1.00;;;;;;5086207;28;20221;-78
2022/01/15 01:54:16;;;;;;;19.98;7.65;;;3.20;1.00;;;;;;5080323;28;20231;-79
2022/01/15 01:56:44;;;;;;;14.93;6.30;;;3.20;1.00;;;;;;5090864;28;20213;-80
2022/01/15 01:59:10;;;;;;;13.82;5.85;;;3.20;1.00;;;;;;5087138;28;20202;-80
2022/01/15 02:01:38;;;;;;;16.80;6.78;;;3.20;1.00;;;;;;5076191;28;20223;-81
2022/01/15 02:04:05;;;;;;;18.70;6.22;;;3.20;1.00;;;;;;5086734;28;20295;-80
2022/01/15 02:06:32;;;;;;;17.42;6.72;;;3.20;1.00;;;;;;5091627;28;20231;-81
2022/01/15 02:08:59;;;;;;;20.45;6.95;;;3.20;1.00;;;;;;5096497;28;20233;-82
2022/01/15 02:11:26;;;;;;;16.17;6.03;;;3.20;1.00;;;;;;5090677;28;20217;-82
2022/01/15 02:13:53;;;;;;;22.70;6.32;;;3.20;1.00;;;;;;5092584;28;20220;-82
2022/01/15 02:16:20;;;;;;;19.63;6.05;;;3.20;1.00;;;;;;5091583;28;20221;-83
2022/01/15 02:18:53;;;;;;;22.40;5.95;;;3.20;1.00;;;;;;5085322;28;20232;-82
2022/01/15 02:24:06;;;;;;;14.48;6.18;;;3.30;1.00;;;;;;5088951;28;20248;-82
2022/01/15 02:26:37;;;;;;;21.50;5.68;;;3.20;1.00;;;;;;5088378;28;20252;-82
2022/01/15 02:29:05;;;;;;;19.30;5.53;;;3.20;1.00;;;;;;5081383;28;20272;-82
2022/01/15 02:31:32;;;;;;;20.58;5.30;;;3.20;1.00;;;;;;5090745;28;20229;-82
2022/01/15 02:34:01;;;;;;;15.98;5.85;;;3.30;1.00;;;;;;5083560;28;20221;-82
2022/01/15 02:36:31;;;;;;;10.20;4.55;;;3.20;1.00;;;;;;5084052;28;20272;-82
2022/01/15 02:38:59;;;;;;;21.30;5.40;;;3.20;1.00;;;;;;5078170;28;20208;-79
2022/01/15 02:41:28;;;;;;;15.32;5.40;;;3.20;1.00;;;;;;5079721;28;20247;-82
2022/01/15 02:43:58;;;;;;;16.88;4.65;;;3.20;1.00;;;;;;5078552;28;20263;-82
2022/01/15 02:46:36;;;;;;;14.90;6.15;;;3.20;1.00;;;;;;5072595;28;24859;-81
2022/01/15 02:49:06;;;;;;;16.88;6.32;;;3.20;1.00;;;;;;5068430;28;20221;-81
2022/01/15 02:51:35;;;;;;;15.63;5.72;;;3.10;1.00;;;;;;5064086;28;20228;-82
2022/01/15 02:54:04;;;;;;;18.33;5.68;;;3.10;1.00;;;;;;5066331;28;20228;-81
2022/01/15 02:56:34;;;;;;;16.10;5.70;;;3.10;1.00;;;;;;5058133;28;20222;-81
2022/01/15 02:59:02;;;;;;;17.85;7.63;;;3.10;1.00;;;;;;5062204;28;20224;-81
2022/01/15 03:01:29;;;;;;;11.75;5.90;;;3.10;1.00;;;;;;5061745;28;20379;-81
2022/01/15 03:03:56;;;;;;;17.92;7.00;;;3.00;1.00;;;;;;5060177;28;20238;-82
2022/01/15 03:06:23;;;;;;;17.90;6.13;;;3.10;1.00;;;;;;5065238;28;20252;-80
2022/01/15 03:08:53;;;;;;;14.20;6.15;;;3.00;1.00;;;;;;5060685;28;20759;-80
2022/01/15 03:11:21;;;;;;;17.75;6.47;;;3.00;1.00;;;;;;5057120;28;20224;-82
2022/01/15 03:13:48;;;;;;;14.73;5.80;;;3.00;1.00;;;;;;5060835;28;20316;-81
2022/01/15 03:16:17;;;;;;;15.18;5.93;;;3.00;1.00;;;;;;5084845;28;20213;-82
2022/01/15 03:18:45;;;;;;;18.25;6.00;;;3.00;1.00;;;;;;5066778;28;21993;-80
2022/01/15 03:21:12;;;;;;;20.35;6.55;;;2.90;1.00;;;;;;5064163;28;20287;-83
2022/01/15 03:23:40;;;;;;;17.58;7.53;;;2.90;1.00;;;;;;5057919;28;20282;-83
2022/01/15 03:26:11;;;;;;;19.00;7.40;;;2.90;1.00;;;;;;5058866;28;20227;-82
2022/01/15 03:28:39;;;;;;;26.40;10.50;;;2.90;1.00;;;;;;5069856;28;20236;-82
2022/01/15 03:31:05;;;;;;;20.60;10.27;;;2.80;1.00;;;;;;5059372;28;20221;-82
2022/01/15 03:33:32;;;;;;;22.83;10.10;;;2.80;1.00;;;;;;5057221;28;20225;-82
2022/01/15 03:35:59;;;;;;;17.48;10.20;;;2.80;1.00;;;;;;5056548;28;20218;-82
2022/01/15 03:38:26;;;;;;;23.35;10.85;;;2.80;1.00;;;;;;5054355;28;20282;-83
2022/01/15 03:40:54;;;;;;;22.15;11.50;;;2.80;1.00;;;;;;5058080;28;20320;-83
2022/01/15 03:43:23;;;;;;;22.38;10.20;;;2.80;1.00;;;;;;5071016;28;20224;-81
2022/01/15 03:45:50;;;;;;;22.25;10.95;;;2.80;1.00;;;;;;5068700;28;20222;-80
2022/01/15 03:48:17;;;;;;;26.48;11.35;;;2.70;1.00;;;;;;5077104;28;20276;-81
2022/01/15 03:50:44;;;;;;;25.67;10.10;;;2.70;1.00;;;;;;5073271;28;20664;-81
2022/01/15 03:53:10;;;;;;;28.17;11.60;;;2.60;1.00;;;;;;5062635;28;20340;-82
2022/01/15 03:55:38;;;;;;;22.08;10.60;;;2.60;1.00;;;;;;5053579;28;20233;-82
2022/01/15 03:58:05;;;;;;;23.25;10.50;;;2.70;1.00;;;;;;5062905;28;20214;-82
2022/01/15 04:00:33;;;;;;;23.17;11.02;;;2.70;1.00;;;;;;5070955;28;20221;-82
2022/01/15 04:03:00;;;;;;;14.82;8.93;;;2.60;1.00;;;;;;5060155;28;20991;-82
2022/01/15 04:05:26;;;;;;;17.27;8.73;;;2.60;1.00;;;;;;5069476;28;20291;-81
2022/01/15 04:07:53;;;;;;;23.98;9.73;;;2.60;1.00;;;;;;5064334;28;20945;-82
2022/01/15 04:10:20;;;;;;;24.55;9.30;;;2.60;1.00;;;;;;5061101;28;20275;-83
2022/01/15 04:12:47;;;;;;;19.52;9.10;;;2.60;1.00;;;;;;5059665;28;20736;-82
2022/01/15 04:15:16;;;;;;;21.30;9.05;;;2.60;1.00;;;;;;5061171;28;20224;-83
2022/01/15 04:17:46;;;;;;;19.88;8.80;;;2.50;1.00;;;;;;5062240;28;21038;-82
2022/01/15 04:20:16;;;;;;;23.83;9.95;;;2.50;1.00;;;;;;5056316;28;21759;-83
2022/01/15 04:22:43;;;;;;;19.17;9.18;;;2.50;1.00;;;;;;5055369;28;20221;-82
2022/01/15 04:25:11;;;;;;;23.40;10.52;;;2.50;1.00;;;;;;5065978;28;20311;-82
2022/01/15 04:27:38;;;;;;;19.33;10.23;;;2.50;1.00;;;;;;5054553;28;20226;-82
2022/01/15 04:30:06;;;;;;;34.45;12.20;;;2.50;1.00;;;;;;5058698;28;20244;-82
2022/01/15 04:32:33;;;;;;;22.58;10.63;;;2.50;1.00;;;;;;5057334;28;20256;-83
2022/01/15 04:35:01;;;;;;;19.48;12.07;;;2.50;1.00;;;;;;5047500;28;20225;-82
2022/01/15 04:37:35;;;;;;;25.05;11.30;;;2.50;1.00;;;;;;5057703;28;20248;-82
2022/01/15 04:40:03;;;;;;;26.67;12.38;;;2.50;1.00;;;;;;5060765;28;20224;-81
2022/01/15 04:42:30;;;;;;;26.58;13.45;;;2.40;1.00;;;;;;5056696;28;20340;-82
2022/01/15 04:44:56;;;;;;;28.85;13.43;;;2.50;1.00;;;;;;5058822;28;20758;-83
2022/01/15 04:47:24;;;;;;;21.75;13.30;;;2.50;1.00;;;;;;5058617;28;20233;-81
2022/01/15 04:49:51;;;;;;;25.33;14.25;;;2.50;1.00;;;;;;5058405;28;20351;-82
2022/01/15 04:52:19;;;;;;;24.42;14.27;;;2.50;1.00;;;;;;5078284;28;20244;-81
2022/01/15 04:54:45;;;;;;;27.83;14.25;;;2.50;1.00;;;;;;5063955;28;20308;-81
2022/01/15 04:57:12;;;;;;;23.83;14.95;;;2.50;1.00;;;;;;5056738;28;20236;-82
2022/01/15 04:59:38;;;;;;;35.92;15.25;;;2.50;1.00;;;;;;5056986;28;20225;-82
2022/01/15 05:02:05;;;;;;;31.38;13.85;;;2.60;1.00;;;;;;5039149;28;20229;-82
2022/01/15 05:04:32;;;;;;;25.55;14.27;;;2.60;1.00;;;;;;5062397;28;20231;-83
2022/01/15 05:06:58;;;;;;;21.90;13.40;;;2.60;1.00;;;;;;5054746;28;20295;-81
2022/01/15 05:09:26;;;;;;;29.38;14.80;;;2.70;1.00;;;;;;5059104;28;20220;-83
2022/01/15 05:12:01;;;;;;;26.38;13.40;;;2.70;1.00;;;;;;5056208;28;20229;-81
2022/01/15 05:14:28;;;;;;;25.10;15.55;;;2.70;1.00;;;;;;5056356;28;20331;-83
2022/01/15 05:16:55;;;;;;;29.35;14.90;;;2.80;1.00;;;;;;5056513;28;20217;-83
2022/01/15 05:19:21;;;;;;;41.33;15.30;;;2.80;1.00;;;;;;5055026;28;20322;-82
2022/01/15 05:21:48;;;;;;;26.33;15.50;;;2.90;1.00;;;;;;5061684;28;20297;-82
2022/01/15 05:24:15;;;;;;;27.58;15.52;;;2.90;1.00;;;;;;5061666;28;20229;-82
2022/01/15 05:26:43;;;;;;;26.08;13.95;;;2.90;1.00;;;;;;5061010;28;20323;-83
2022/01/15 05:29:10;;;;;;;27.33;14.32;;;3.00;1.00;;;;;;5054777;28;20217;-83
2022/01/15 05:31:36;;;;;;;27.60;12.52;;;3.00;1.00;;;;;;5058517;28;20293;-82
2022/01/15 05:34:03;;;;;;;25.90;11.25;;;3.00;1.00;;;;;;5055945;28;20288;-82
2022/01/15 05:36:31;;;;;;;24.13;11.52;;;3.10;1.00;;;;;;5064268;28;21049;-83
2022/01/15 05:38:58;;;;;;;23.45;13.10;;;3.10;1.00;;;;;;5064201;28;21161;-82
2022/01/15 05:41:24;;;;;;;24.58;14.45;;;3.10;1.00;;;;;;5061360;28;20256;-83
2022/01/15 05:43:53;;;;;;;28.80;15.48;;;3.10;1.00;;;;;;5062654;28;20217;-83
2022/01/15 05:46:20;;;;;;;23.52;11.90;;;3.10;1.00;;;;;;5064855;28;20244;-82
2022/01/15 05:48:47;;;;;;;32.30;14.48;;;3.10;1.00;;;;;;5060788;28;20301;-83
2022/01/15 05:51:13;;;;;;;34.78;13.95;;;3.20;1.00;;;;;;5080379;28;20752;-80
2022/01/15 05:53:40;;;;;;;24.50;13.40;;;3.20;1.00;;;;;;5086741;28;20213;-80
2022/01/15 05:56:07;;;;;;;21.80;12.40;;;3.20;1.00;;;;;;5083750;28;20233;-81
2022/01/15 05:58:33;;;;;;;26.58;15.30;;;3.20;1.00;;;;;;5060987;28;20244;-80
2022/01/15 06:01:01;;;;;;;20.17;12.27;;;3.20;1.00;;;;;;5063495;28;20250;-80
2022/01/15 06:03:28;;;;;;;29.25;15.38;;;3.20;1.00;;;;;;5050132;28;20488;-81
2022/01/15 06:05:55;;;;;;;32.83;16.42;;;3.10;1.00;;;;;;5054844;28;20288;-81
2022/01/15 06:08:22;;;;;;;23.88;14.95;;;3.10;1.00;;;;;;5046824;28;20320;-81
2022/01/15 06:10:49;;;;;;;32.47;15.82;;;3.20;1.00;;;;;;5068461;28;20216;-82
2022/01/15 06:13:15;;;;;;;36.60;18.48;;;3.00;1.00;;;;;;5066023;28;20255;-81
2022/01/15 06:15:42;;;;;;;34.38;17.20;;;3.00;1.00;;;;;;5060438;28;20306;-81
2022/01/15 06:18:10;;;;;;;29.05;15.50;;;3.00;1.00;;;;;;5057222;28;20685;-83
2022/01/15 06:20:37;;;;;;;36.10;18.75;;;2.90;1.00;;;;;;5060396;28;20305;-82
2022/01/15 06:23:04;;;;;;;31.55;16.00;;;2.90;1.00;;;;;;5068403;28;21125;-84
2022/01/15 06:25:31;;;;;;;31.45;16.63;;;2.90;1.00;;;;;;5067637;28;21047;-84
2022/01/15 06:27:58;;;;;;;31.77;18.33;;;2.80;1.00;;;;;;5083391;28;20220;-86
2022/01/15 06:30:25;;;;;;;29.10;15.90;;;2.70;1.00;;;;;;5087292;28;20245;-84
2022/01/15 06:32:52;;;;;;;37.45;18.20;;;2.70;1.00;;;;;;5077547;28;20205;-84
2022/01/15 06:35:21;;;;;;;31.33;17.60;;;2.60;1.00;;;;;;5093213;28;20241;-84
2022/01/15 06:37:48;;;;;;;29.40;17.08;;;2.70;1.00;;;;;;5070300;28;20229;-87
2022/01/15 06:40:16;;;;;;;28.05;15.05;;;2.70;1.00;;;;;;5068312;28;20233;-83
2022/01/15 06:42:43;;;;;;;25.70;14.35;;;2.80;1.00;;;;;;5070394;28;20217;-85
2022/01/15 06:45:14;;;;;;;19.35;11.10;;;2.80;1.00;;;;;;5072822;28;20229;-84
2022/01/15 06:47:41;;;;;;;21.88;10.18;;;2.80;1.00;;;;;;5066169;28;20225;-85
2022/01/15 06:50:10;;;;;;;21.33;10.90;;;2.80;1.00;;;;;;5069000;28;20232;-85
2022/01/15 06:52:39;;;;;;;25.00;10.00;;;2.80;1.00;;;;;;5063153;28;20302;-86
2022/01/15 06:55:08;;;;;;;21.70;10.52;;;2.70;1.00;;;;;;5041140;28;20990;-82
2022/01/15 06:57:35;;;;;;;24.33;11.15;;;2.70;1.00;;;;;;5072484;28;20369;-83
2022/01/15 07:00:03;;;;;;;26.92;11.63;;;2.70;1.00;;;;;;5069184;28;20229;-83
2022/01/15 07:02:30;;;;;;;26.63;11.38;;;2.70;1.00;;;;;;5063955;28;20224;-80
2022/01/15 07:04:57;;;;;;;26.92;13.30;;;2.70;1.00;;;;;;5042787;28;20237;-82
2022/01/15 07:07:23;;;;;;;27.77;13.35;;;2.70;1.00;;;;;;5044861;28;21167;-83
2022/01/15 07:09:51;;;;;;;25.50;13.60;;;2.70;1.00;;;;;;5064214;28;20229;-85
2022/01/15 07:12:18;;;;;;;23.70;12.35;;;2.70;1.00;;;;;;5067917;28;20229;-85
2022/01/15 07:14:45;;;;;;;27.27;13.75;;;2.70;1.00;;;;;;5062363;28;20239;-84
2022/01/15 07:17:12;;;;;;;31.25;12.73;;;2.70;1.00;;;;;;5066433;28;21215;-86
2022/01/15 07:19:39;;;;;;;23.95;12.60;;;2.70;1.00;;;;;;5066268;28;20232;-84
2022/01/15 07:22:07;;;;;;;30.60;14.77;;;2.70;1.00;;;;;;5048055;28;20241;-84
2022/01/15 07:24:34;;;;;;;20.08;13.02;;;2.80;1.00;;;;;;5058730;28;20754;-85
2022/01/15 07:27:03;;;;;;;21.85;12.30;;;2.80;1.00;;;;;;5046162;28;20236;-81
2022/01/15 07:29:31;;;;;;;28.45;12.20;;;2.80;1.00;;;;;;5067257;28;20336;-81
2022/01/15 07:31:58;;;;;;;27.23;13.27;;;2.80;1.00;;;;;;5059113;28;20287;-80
2022/01/15 07:34:25;;;;;;;26.00;14.70;;;2.80;1.00;;;;;;5064239;28;20275;-80
2022/01/15 07:36:57;;;;;;;31.65;15.27;;;2.80;1.00;;;;;;5067008;28;20224;-83
2022/01/15 07:39:24;;;;;;;25.33;14.00;;;2.80;1.00;;;;;;5062848;28;20340;-86
2022/01/15 07:41:51;;;;;;;27.75;14.73;;;2.80;1.00;;;;;;5058757;28;20312;-84
2022/01/15 07:44:19;;;;;;;29.80;16.70;;;2.80;1.00;;;;;;5064239;28;20253;-84
2022/01/15 07:46:46;;;;;;;32.83;16.27;;;2.80;1.00;;;;;;5062276;28;20316;-85
2022/01/15 07:49:13;;;;;;;26.67;15.85;;;2.70;1.00;;;;;;5063553;28;20310;-85
2022/01/15 07:51:40;;;;;;;32.63;16.88;;;2.70;1.00;;;;;;5060064;28;20358;-82
2022/01/15 07:54:06;;;;;;;35.28;16.92;;;2.70;1.00;;;;;;5062059;28;20301;-81
2022/01/15 07:56:33;;;;;;;28.35;15.57;;;2.80;1.00;;;;;;5061804;28;20260;-82
2022/01/15 07:59:00;;;;;;;30.48;16.65;;;2.80;1.00;;;;;;5063319;28;20277;-82
2022/01/15 08:01:29;;;;;;;36.10;18.30;;;2.80;1.00;;;;;;5056439;28;20232;-83
2022/01/15 08:03:56;;;;;;;27.23;17.17;;;2.80;1.00;;;;;;5054327;28;20263;-81
2022/01/15 08:06:23;;;;;;;33.65;18.15;;;2.80;1.00;;;;;;5074306;28;20245;-81
2022/01/15 08:08:50;;;;;;;34.55;18.20;;;2.80;1.00;;;;;;5050563;28;20248;-82
2022/01/15 08:11:16;;;;;;;36.97;18.83;;;2.80;1.00;;;;;;5061931;28;20259;-81
2022/01/15 08:13:43;;;;;;;32.80;17.92;;;2.80;1.00;;;;;;5064453;28;20223;-82
2022/01/15 08:16:10;;;;;;;31.20;19.13;;;2.80;1.00;;;;;;5065543;28;20907;-82
2022/01/15 08:18:38;;;;;;;30.45;16.75;;;2.90;1.00;;;;;;5046064;28;20239;-82
2022/01/15 08:21:06;;;;;;;30.23;18.23;;;2.90;1.00;;;;;;5062817;28;20417;-82
2022/01/15 08:23:33;;;;;;;33.22;16.42;;;3.00;1.00;;;;;;5081279;28;20211;-81
2022/01/15 08:26:00;;;;;;;31.60;17.35;;;3.00;1.00;;;;;;5083797;28;20236;-80
2022/01/15 08:28:27;;;;;;;32.45;15.95;;;3.00;1.00;;;;;;5081309;28;20221;-82
2022/01/15 08:30:54;;;;;;;29.13;17.23;;;3.00;1.00;;;;;;5053053;28;20340;-82
2022/01/15 08:33:21;;;;;;;30.45;16.23;;;3.10;1.00;;;;;;5056286;28;20770;-82
2022/01/15 08:35:50;;;;;;;26.55;15.55;;;3.10;1.00;;;;;;5065648;28;20213;-80
2022/01/15 08:38:17;;;;;;;29.20;15.90;;;3.20;1.00;;;;;;5058540;28;20301;-79
2022/01/15 08:40:44;;;;;;;31.88;17.45;;;3.20;1.00;;;;;;5048032;28;20325;-83
2022/01/15 08:43:13;;;;;;;36.85;17.63;;;3.40;1.00;;;;;;5070247;28;20993;-80
2022/01/15 08:45:40;;;;;;;29.38;16.45;;;3.30;1.00;;;;;;5070034;28;20285;-81
2022/01/15 08:48:08;;;;;;;34.15;30.55;;;3.30;1.00;;;;;;5082173;28;20220;-82
2022/01/15 08:50:36;;;;;;;24.63;17.05;;;3.30;1.00;;;;;;5068669;28;20239;-85
2022/01/15 08:53:07;;;;;;;34.20;18.00;;;3.30;1.00;;;;;;5057048;28;20201;-80
2022/01/15 08:55:38;;;;;;;24.65;14.02;;;3.30;1.00;;;;;;5070235;28;20204;-81
2022/01/15 08:58:05;;;;;;;26.83;13.80;;;3.30;1.00;;;;;;5073063;28;20243;-83
2022/01/15 09:00:33;;;;;;;24.30;12.82;;;3.30;1.00;;;;;;5053580;28;20228;-84
2022/01/15 09:03:00;;;;;;;21.60;11.70;;;3.30;1.00;;;;;;5069184;28;20217;-84
2022/01/15 09:05:27;;;;;;;32.10;13.02;;;3.30;1.00;;;;;;5069641;28;20239;-83
2022/01/15 09:07:54;;;;;;;31.13;13.90;;;3.30;1.00;;;;;;5068327;28;20291;-83
2022/01/15 09:10:23;;;;;;;28.38;14.23;;;3.30;1.00;;;;;;5068323;28;20283;-83
2022/01/15 09:12:50;;;;;;;29.83;17.02;;;3.40;1.00;;;;;;5064134;28;20463;-83
2022/01/15 09:15:17;;;;;;;27.63;14.48;;;3.40;1.00;;;;;;5086102;28;20358;-84
2022/01/15 09:17:45;;;;;;;31.73;15.55;;;3.40;1.00;;;;;;5080182;28;20224;-83
2022/01/15 09:20:13;;;;;;;28.30;14.55;;;3.50;1.00;;;;;;5063698;28;21343;-83
2022/01/15 09:22:40;;;;;;;31.30;16.27;;;3.50;1.00;;;;;;5049737;28;21014;-83
2022/01/15 09:25:09;;;;;;;25.80;15.68;;;3.40;1.00;;;;;;5068715;28;20227;-85
2022/01/15 09:30:21;;;;;;;23.95;13.48;;;3.50;1.00;;;;;;5070345;28;20216;-85
2022/01/15 09:32:50;;;;;;;27.02;13.82;;;3.50;1.00;;;;;;5069658;28;20258;-84
2022/01/15 09:35:19;;;;;;;24.00;13.70;;;3.50;1.00;;;;;;5069357;28;21580;-86
2022/01/15 09:37:51;;;;;;;29.27;12.63;;;3.60;1.00;;;;;;5072111;28;20247;-87
2022/01/15 09:40:19;;;;;;;20.65;12.38;;;3.50;1.00;;;;;;5055941;28;20891;-85
2022/01/15 09:43:08;;;;;;;29.13;14.45;;;3.50;1.00;;;;;;5068411;28;20285;-87
2022/01/15 09:48:50;;;;;;;34.63;14.30;;;3.60;1.00;;;;;;5071864;28;20284;-85
2022/01/15 09:53:50;;;;;;;24.05;12.90;;;3.70;1.00;;;;;;5086885;28;20250;-85
2022/01/15 09:56:17;;;;;;;21.98;12.48;;;3.80;1.00;;;;;;5099801;28;20197;-86
2022/01/15 09:58:45;;;;;;;16.02;11.55;;;3.80;1.00;;;;;;5259720;22;20260;-91
2022/01/15 10:01:15;;;;;;;30.65;13.35;;;3.80;1.00;;;;;;5256388;22;20273;-89
2022/01/15 10:03:42;;;;;;;24.80;12.80;;;3.80;1.00;;;;;;5152390;23;20232;-88
2022/01/15 10:06:12;;;;;;;17.80;10.38;;;3.90;1.00;;;;;;5086921;22;20234;-87
2022/01/15 10:08:40;;;;;;;20.17;12.77;;;3.80;1.00;;;;;;5032543;28;20230;-85
2022/01/15 10:11:11;;;;;;;24.08;12.45;;;3.90;1.00;;;;;;5060088;28;20230;-84
2022/01/15 10:13:46;;;;;;;24.40;12.00;;;3.90;1.00;;;;;;5049840;28;20221;-84
2022/01/15 10:16:17;;;;;;;23.27;11.77;;;4.10;1.00;;;;;;5053121;28;20241;-83
2022/01/15 10:18:47;;;;;;;23.05;12.48;;;4.10;1.00;;;;;;5052858;28;21113;-85
2022/01/15 10:21:16;;;;;;;24.23;11.70;;;4.20;1.00;;;;;;5040338;28;20237;-84
2022/01/15 10:23:51;;;;;;;22.77;12.48;;;4.30;1.00;;;;;;5032191;28;20276;-83
2022/01/15 10:26:20;;;;;;;26.63;13.65;;;4.50;1.00;;;;;;5036269;28;21148;-83
2022/01/15 10:28:54;;;;;;;25.05;13.65;;;4.60;1.00;;;;;;5054789;28;20224;-84
2022/01/15 10:31:23;;;;;;;28.08;14.15;;;4.60;1.00;;;;;;5035744;28;20245;-83
2022/01/15 10:33:51;;;;;;;24.02;13.27;;;4.50;1.00;;;;;;5042745;28;20226;-84
2022/01/15 10:36:27;;;;;;;28.88;13.45;;;4.50;1.00;;;;;;5055776;28;20233;-83
2022/01/15 10:39:20;;;;;;;26.45;14.85;;;4.40;1.00;;;;;;5050587;28;21211;-84
2022/01/15 10:41:48;;;;;;;22.15;12.45;;;4.50;1.00;;;;;;5052550;28;20228;-84
2022/01/15 10:44:34;;;;;;;20.08;12.45;;;4.60;1.00;;;;;;5052740;28;20871;-83
2022/01/15 10:47:02;;;;;;;24.27;12.45;;;4.60;1.00;;;;;;5054738;28;20667;-83
2022/01/15 10:49:29;;;;;;;27.30;13.52;;;4.60;1.00;;;;;;5031665;28;20315;-84
2022/01/15 10:52:12;;;;;;;19.33;12.45;;;4.60;1.00;;;;;;5033509;28;20714;-82
2022/01/15 10:54:54;;;;;;;25.05;14.13;;;4.60;1.00;;;;;;5033185;28;20232;-84
2022/01/15 10:57:23;;;;;;;26.48;18.20;;;4.70;1.00;;;;;;5051404;28;20222;-82
2022/01/15 11:00:10;;;;;;;22.70;11.95;;;4.60;1.00;;;;;;5051308;28;20230;-83
2022/01/15 11:02:37;;;;;;;27.77;13.48;;;4.60;1.00;;;;;;5070947;28;20221;-84
2022/01/15 11:05:37;;;;;;;26.15;14.30;;;4.60;1.00;;;;;;5052986;28;20222;-83
2022/01/15 11:08:08;;;;;;;24.90;15.65;;;4.50;1.00;;;;;;5039203;28;20762;-85
2022/01/15 11:10:43;;;;;;;27.98;15.82;;;4.50;1.00;;;;;;5044506;28;20253;-84
2022/01/15 11:13:12;;;;;;;29.48;15.07;;;4.50;1.00;;;;;;5052948;28;20236;-84
2022/01/15 11:15:42;;;;;;;33.95;17.23;;;4.30;1.00;;;;;;5036594;28;20285;-84
2022/01/15 11:18:14;;;;;;;34.80;16.85;;;4.40;1.00;;;;;;5044796;28;21142;-82
2022/01/15 11:20:47;;;;;;;25.40;15.63;;;4.50;1.00;;;;;;5063792;28;20218;-83
2022/01/15 11:23:14;;;;;;;30.65;15.55;;;4.50;1.00;;;;;;5046641;28;20237;-82
2022/01/15 11:26:10;;;;;;;29.13;15.60;;;4.50;1.00;;;;;;5048130;28;20227;-83
2022/01/15 11:28:42;;;;;;;35.42;16.95;;;4.50;1.00;;;;;;5051656;28;20225;-82
2022/01/15 11:31:44;;;;;;;26.75;16.38;;;4.30;1.00;;;;;;5035996;28;20284;-83
2022/01/15 11:34:26;;;;;;;24.50;16.05;;;4.30;1.00;;;;;;5041529;28;20356;-84
2022/01/15 11:43:55;;;;;;;26.02;15.00;;;4.20;1.00;;;;;;5060568;28;20244;-83
2022/01/15 11:46:54;;;;;;;29.63;15.30;;;4.10;1.00;;;;;;5037748;28;20295;-83
2022/01/15 11:49:38;;;;;;;24.23;15.02;;;4.20;1.00;;;;;;5048169;28;20217;-84
2022/01/15 11:52:35;;;;;;;21.08;13.25;;;4.20;1.00;;;;;;5056133;28;20252;-83
2022/01/15 11:55:42;;;;;;;;;;;;;;;;;;;;;
2022/01/15 11:58:14;;;;;;;30.83;15.35;;;4.10;1.00;;;;;;5071342;28;20362;-83
2022/01/15 12:00:58;;;;;;;26.90;15.52;;;4.20;1.00;;;;;;5044621;28;20238;-81
2022/01/15 12:04:17;;;;;;;28.80;15.38;;;4.20;1.00;;;;;;5035070;28;20936;-83
2022/01/15 12:07:25;;;;;;;23.08;13.80;;;4.20;1.00;;;;;;5047020;28;20360;-83
2022/01/15 12:10:24;;;;;;;;;;;;;;;;;;;;;
2022/01/15 12:13:00;;;;;;;28.55;14.65;;;4.20;1.00;;;;;;5037458;28;20834;-82
2022/01/15 12:15:31;;;;;;;28.00;16.40;;;4.20;1.00;;;;;;5052108;28;20217;-83
2022/01/15 12:18:18;;;;;;;26.83;16.00;;;4.30;1.00;;;;;;5050382;28;20333;-83
2022/01/15 12:23:53;;;;;;;28.17;15.45;;;4.40;1.00;;;;;;5036226;28;20221;-83
2022/01/15 12:27:01;;;;;;;28.88;15.18;;;4.30;1.00;;;;;;5054716;28;20344;-84
2022/01/15 12:29:56;;;;;;;21.33;13.60;;;4.20;1.00;;;;;;5047036;28;20336;-82
2022/01/15 12:32:55;;;;;;;34.47;16.23;;;4.30;1.00;;;;;;5047035;28;20237;-82
2022/01/15 12:38:49;;;;;;;22.35;13.57;;;4.20;1.00;;;;;;5034601;28;20226;-82
2022/01/15 12:41:25;;;;;;;29.70;18.92;;;4.30;1.00;;;;;;5045877;28;20224;-83
2022/01/15 12:44:17;;;;;;;24.63;16.15;;;4.30;1.00;;;;;;5049628;28;20230;-83
2022/01/15 12:47:22;;;;;;;23.50;13.55;;;4.30;1.00;;;;;;5048337;28;20256;-82
2022/01/15 12:50:19;;;;;;;30.42;14.10;;;4.40;1.00;;;;;;5047004;28;20739;-83
2022/01/15 12:53:17;;;;;;;22.52;14.80;;;4.40;1.00;;;;;;5050110;28;20312;-82
2022/01/15 12:56:06;;;;;;;28.02;16.08;;;4.50;1.00;;;;;;5058633;28;20222;-82
2022/01/15 12:59:10;;;;;;;25.48;15.07;;;4.60;1.00;;;;;;5041324;28;20221;-82
2022/01/15 13:01:59;;;;;;;28.00;14.90;;;4.60;1.00;;;;;;5030172;28;20225;-83
2022/01/15 13:04:59;;;;;;;30.38;15.20;;;4.70;1.00;;;;;;5028305;28;20235;-83
2022/01/15 13:11:48;;;;;;;37.60;15.75;;;4.70;1.00;;;;;;5036395;28;20222;-83
2022/01/15 13:14:56;;;;;;;28.38;13.95;;;4.60;1.00;;;;;;5020894;28;20217;-83
2022/01/15 13:17:54;;;;;;;23.50;11.77;;;4.70;1.00;;;;;;5018013;28;20221;-82
2022/01/15 14:14:16;;;;;;;26.25;11.80;;;4.70;1.00;;;;;;6169653;22;20283;-83
2022/01/15 14:21:39;;;;;;;21.25;11.45;;;4.70;1.00;;;;;;6199351;22;20235;-82
2022/01/15 15:34:46;;;;;;;24.88;13.57;;;4.10;1.00;;;;;;4908731;28;20284;-83
2022/01/15 15:48:58;;;;;;;;;;;;;;;;;;;;;
2022/01/15 16:13:56;;;;;;;31.55;13.82;;;4.00;1.00;;;;;;5065090;28;20233;-82
2022/01/15 16:24:13;;;;;;;26.05;15.98;;;3.90;1.00;;;;;;4991641;28;20239;-82
2022/01/15 16:26:55;;;;;;;24.55;15.10;;;3.90;1.00;;;;;;5036414;27;20262;-82
2022/01/15 16:30:18;;;;;;;25.17;15.93;;;4.00;1.00;;;;;;5082703;28;20291;-81
2022/01/15 16:36:59;;;;;;;29.17;16.27;;;4.10;1.00;;;;;;4997007;28;20232;-81
2022/01/15 16:42:24;;;;;;;25.10;17.95;;;4.10;1.00;;;;;;5085753;28;20251;-82
2022/01/15 16:45:24;;;;;;;27.23;16.48;;;4.20;1.00;;;;;;5079432;28;20252;-81
2022/01/15 16:47:57;;;;;;;32.88;17.92;;;4.20;1.00;;;;;;5077830;28;20246;-81